Withee, Wisconsin
Current Conditions -  °F | °C
As of 8:15 AM on Sunday 23 Nov 2014 (Local Time) from KMDZ Reporting Station
Moderate Fog Moderate Fog  
Wind Chill: 36°   Ceiling: 200
Heat Index: 41°   Visibility: 0mi
Dew Point: 41°   Wind: 8mph
Humidity: 100%   Direction: 150°SSE
Pressure: 29.53"   Gusts: NA
Location:  44.96°N, 90.6°W
Report Text: KMDZ 231415Z AUTO 15007KT M1/4SM FG OVC002 05/05 A2953 RMK AO2 T00500050
Loading
Personal Weather Stations






























Interactive Weather Map New forecast layout! Learn more

10-Day Weather Forecast

Advertisements
Track Severe Weather on mobile